LIPZ METAR and TAF | Updated Today

LIPZ METAR

Venice Marco Polo Airport

Observation time: 17 min. ago

LIPZ 060750Z 36006KT CAVOK 04/M00 Q1008 NOSIG

Need help? Read our tutorial on how to read METARs or read the parsed version below.

Venice Marco Polo Airport (LIPZ) METAR

  • Weather conditions on Mon, 06 Dec 2021 07:50:00 +0000 (17 min. ago):
  • Present conditions: Dry
  • Clouds: Clear skies
  • Visibility: Greater than 10 km
  • Wind: 360 degrees at 6 knots
  • Temperature: 4 celsius
  • Dew point: 0 celsius
  • Pressure: 1008 millibars
  • Remarks: None


Useful to know...

LIPZ TAF

Venice Marco Polo Airport

TAF LIPZ 060500Z 0606/0712 02008KT 9999 SCT030
Observation time: 3:07 hr. ago
Need help? Read our tutorial on how to read TAFs or read the parsed version below.

Parsed version of TAF for Venice Marco Polo Airport (LIPZ)

  • From 06 December at 06:00 UTC, to day 07 of the month at 12:00 UTC
  • Clouds: Scattered at 914 meters
  • Visibility: Greater than 10 km
  • Wind: 20 degrees at 8